createdAt,value
2023-01-29T00:00:12.818Z,0.90
2023-01-29T00:02:41.026Z,0.90
2023-01-29T00:05:26.620Z,0.80
2023-01-29T00:07:55.768Z,0.80
2023-01-29T00:10:25.565Z,0.80
2023-01-29T00:12:53.550Z,0.80
2023-01-29T00:15:21.899Z,0.80
2023-01-29T00:17:50.176Z,0.80
2023-01-29T00:20:19.271Z,0.80
2023-01-29T00:22:47.374Z,0.80
2023-01-29T00:25:15.500Z,0.70
2023-01-29T00:27:44.908Z,0.80
2023-01-29T00:30:14.780Z,0.80
2023-01-29T00:32:43.416Z,0.80
2023-01-29T00:35:12.179Z,0.80
2023-01-29T00:37:40.511Z,0.70
2023-01-29T00:40:10.320Z,0.80
2023-01-29T00:42:56.314Z,0.80
2023-01-29T00:45:26.450Z,0.70
2023-01-29T00:47:54.439Z,0.80
2023-01-29T00:50:23.438Z,0.80
2023-01-29T00:52:51.763Z,0.80
2023-01-29T00:55:20.399Z,0.80
2023-01-29T00:57:48.674Z,0.80
2023-01-29T01:00:18.979Z,0.80
2023-01-29T01:03:06.134Z,0.80
2023-01-29T01:05:34.447Z,0.80
2023-01-29T01:08:02.541Z,0.80
2023-01-29T01:10:31.782Z,0.80
2023-01-29T01:13:01.758Z,0.80
2023-01-29T01:15:31.731Z,0.70
2023-01-29T01:18:03.375Z,0.70
2023-01-29T01:20:33.753Z,0.70
2023-01-29T01:23:01.892Z,0.60
2023-01-29T01:25:29.972Z,0.60
2023-01-29T01:28:03.323Z,0.70
2023-01-29T01:30:33.078Z,0.70
2023-01-29T01:33:03.338Z,0.60
2023-01-29T01:35:32.258Z,0.60
2023-01-29T01:38:00.909Z,0.60
2023-01-29T01:40:29.254Z,0.60
2023-01-29T01:42:59.681Z,0.70
2023-01-29T01:45:31.451Z,0.70
2023-01-29T01:48:04.751Z,0.70
2023-01-29T01:50:36.221Z,0.70
2023-01-29T01:53:08.094Z,0.70
2023-01-29T01:55:38.755Z,0.70
2023-01-29T01:58:13.434Z,0.70
2023-01-29T02:00:42.946Z,0.70
2023-01-29T02:03:30.696Z,0.70
2023-01-29T02:06:18.724Z,0.70
2023-01-29T02:09:11.536Z,0.60
2023-01-29T02:11:40.092Z,0.60
2023-01-29T02:14:09.291Z,0.60
2023-01-29T02:16:37.877Z,0.60
2023-01-29T02:19:12.659Z,0.60
2023-01-29T02:22:06.967Z,0.60
2023-01-29T02:24:56.905Z,0.60
2023-01-29T02:27:32.509Z,0.60
2023-01-29T02:30:06.549Z,0.60
2023-01-29T02:32:42.147Z,0.50
2023-01-29T02:35:26.155Z,0.60
2023-01-29T02:38:00.588Z,0.60
2023-01-29T02:40:33.204Z,0.50
2023-01-29T02:43:09.724Z,0.50
2023-01-29T02:45:48.973Z,0.50
2023-01-29T02:48:21.569Z,0.50
2023-01-29T02:50:59.003Z,0.50
2023-01-29T02:53:35.317Z,0.50
2023-01-29T02:56:10.497Z,0.50
2023-01-29T02:58:43.590Z,0.50
2023-01-29T03:01:17.801Z,0.60
2023-01-29T03:03:50.476Z,0.60
2023-01-29T03:06:24.545Z,0.50
2023-01-29T03:08:58.252Z,0.50
2023-01-29T03:11:33.915Z,0.50
2023-01-29T03:14:07.479Z,0.50
2023-01-29T03:16:42.251Z,0.50
2023-01-29T03:19:16.204Z,0.50
2023-01-29T03:21:55.369Z,0.50
2023-01-29T03:24:51.256Z,0.40
2023-01-29T03:27:42.340Z,0.50
2023-01-29T03:30:31.628Z,0.50
2023-01-29T03:33:23.346Z,0.50
2023-01-29T03:35:58.737Z,0.50
2023-01-29T03:38:31.925Z,0.50
2023-01-29T03:41:06.871Z,0.50
2023-01-29T03:43:40.935Z,0.50
2023-01-29T03:46:19.731Z,0.50
2023-01-29T03:48:54.633Z,0.50
2023-01-29T03:51:29.148Z,0.50
2023-01-29T03:54:06.644Z,0.50
2023-01-29T03:56:46.239Z,0.50
2023-01-29T03:59:24.627Z,0.40
2023-01-29T04:02:28.281Z,0.40
2023-01-29T04:05:07.090Z,0.50
2023-01-29T04:07:45.287Z,0.40
2023-01-29T04:10:21.172Z,0.40
2023-01-29T04:12:52.226Z,0.30
2023-01-29T04:15:23.590Z,0.30
2023-01-29T04:17:54.151Z,0.30
2023-01-29T04:20:33.240Z,0.40
2023-01-29T04:23:01.345Z,0.40
2023-01-29T04:25:37.300Z,0.40
2023-01-29T04:28:12.078Z,0.40
2023-01-29T04:30:49.497Z,0.40
2023-01-29T04:33:30.041Z,0.40
2023-01-29T04:36:13.130Z,0.40
2023-01-29T04:38:57.905Z,0.40
2023-01-29T04:41:33.973Z,0.40
2023-01-29T04:44:08.667Z,0.40
2023-01-29T04:46:45.168Z,0.40
2023-01-29T04:49:25.372Z,0.50
2023-01-29T04:52:01.356Z,0.40
2023-01-29T04:54:36.658Z,0.40
2023-01-29T04:57:11.854Z,0.40
2023-01-29T04:59:44.193Z,0.50
2023-01-29T05:02:14.366Z,0.40
2023-01-29T05:04:45.225Z,0.40
2023-01-29T05:07:16.511Z,0.40
2023-01-29T05:09:46.598Z,0.40
2023-01-29T05:12:17.717Z,0.40
2023-01-29T05:14:47.853Z,0.40
2023-01-29T05:17:17.746Z,0.40
2023-01-29T05:19:47.278Z,0.40
2023-01-29T05:22:22.659Z,0.40
2023-01-29T05:24:51.329Z,0.40
2023-01-29T05:27:39.883Z,0.30
2023-01-29T05:30:10.278Z,0.40
2023-01-29T05:32:39.761Z,0.40
2023-01-29T05:35:08.735Z,0.30
2023-01-29T05:37:38.124Z,0.30
2023-01-29T05:40:09.668Z,0.30
2023-01-29T05:42:37.732Z,0.40
2023-01-29T05:45:06.720Z,0.40
2023-01-29T05:47:35.472Z,0.40
2023-01-29T05:50:03.677Z,0.40
2023-01-29T05:52:31.710Z,0.40
2023-01-29T05:55:01.903Z,0.30
2023-01-29T05:57:29.839Z,0.30
2023-01-29T05:59:57.888Z,0.30
2023-01-29T06:02:26.183Z,0.30
2023-01-29T06:04:54.142Z,0.30
2023-01-29T06:07:22.458Z,0.30
2023-01-29T06:09:50.476Z,0.30
2023-01-29T06:12:19.915Z,0.30
2023-01-29T06:14:48.053Z,0.30
2023-01-29T06:17:16.066Z,0.30
2023-01-29T06:19:44.102Z,0.30
2023-01-29T06:22:12.949Z,0.20
2023-01-29T06:24:41.088Z,0.30
2023-01-29T06:27:09.197Z,0.20
2023-01-29T06:29:38.564Z,0.20
2023-01-29T06:32:07.109Z,0.30
2023-01-29T06:34:35.163Z,0.30
2023-01-29T06:37:03.464Z,0.30
2023-01-29T06:39:31.754Z,0.30
2023-01-29T06:42:00.856Z,0.30
2023-01-29T06:44:28.907Z,0.30
2023-01-29T06:46:58.608Z,0.30
2023-01-29T06:49:26.759Z,0.20
2023-01-29T06:51:54.972Z,0.20
2023-01-29T06:54:23.123Z,0.20
2023-01-29T06:56:51.215Z,0.20
2023-01-29T06:59:19.524Z,0.20
2023-01-29T07:01:47.628Z,0.20
2023-01-29T07:04:17.401Z,0.30
2023-01-29T07:06:45.566Z,0.30
2023-01-29T07:09:14.798Z,0.30
2023-01-29T07:11:42.833Z,0.30
2023-01-29T07:14:10.959Z,0.30
2023-01-29T07:16:39.008Z,0.30
2023-01-29T07:19:07.147Z,0.30
2023-01-29T07:21:36.892Z,0.30
2023-01-29T07:24:05.390Z,0.40
2023-01-29T07:26:33.453Z,0.30
2023-01-29T07:29:02.175Z,0.40
2023-01-29T07:31:30.337Z,0.40
2023-01-29T07:33:58.414Z,0.40
2023-01-29T07:36:27.233Z,0.40
2023-01-29T07:38:57.200Z,0.40
2023-01-29T07:41:25.218Z,0.50
2023-01-29T07:43:53.646Z,0.50
2023-01-29T07:46:22.026Z,0.50
2023-01-29T07:48:50.024Z,0.50
2023-01-29T07:51:18.629Z,0.60
2023-01-29T07:53:47.180Z,0.50
2023-01-29T07:56:16.532Z,0.50
2023-01-29T07:58:45.426Z,0.50
2023-01-29T08:01:13.698Z,0.50
2023-01-29T08:03:41.769Z,0.50
2023-01-29T08:06:09.817Z,0.50
2023-01-29T08:08:38.319Z,0.60
2023-01-29T08:11:07.249Z,0.60
2023-01-29T08:13:36.611Z,0.60
2023-01-29T08:16:05.873Z,0.50
2023-01-29T08:18:35.119Z,0.50
2023-01-29T08:21:03.510Z,0.60
2023-01-29T08:23:31.928Z,0.60
2023-01-29T08:26:00.138Z,0.60
2023-01-29T08:28:28.311Z,0.60
2023-01-29T08:30:57.900Z,0.60
2023-01-29T08:33:38.704Z,0.70
2023-01-29T08:36:08.879Z,0.70
2023-01-29T08:38:37.321Z,0.70
2023-01-29T08:41:06.334Z,0.70
2023-01-29T08:43:37.241Z,0.80
2023-01-29T08:46:07.792Z,0.80
2023-01-29T08:48:36.345Z,0.80
2023-01-29T08:51:04.749Z,0.80
2023-01-29T08:53:33.396Z,0.80
2023-01-29T08:56:01.913Z,0.80
2023-01-29T08:58:31.025Z,0.80
2023-01-29T09:01:09.126Z,0.80
2023-01-29T09:03:38.103Z,0.80
2023-01-29T09:06:06.357Z,0.80
2023-01-29T09:08:35.560Z,0.80
2023-01-29T09:11:03.562Z,0.70
2023-01-29T09:13:31.924Z,0.60
2023-01-29T09:16:02.216Z,0.80
2023-01-29T09:18:32.324Z,0.80
2023-01-29T09:21:02.927Z,0.80
2023-01-29T09:23:31.614Z,0.80
2023-01-29T09:26:00.175Z,0.80
2023-01-29T09:28:28.834Z,0.80
2023-01-29T09:30:57.172Z,0.80
2023-01-29T09:33:26.318Z,0.80
2023-01-29T09:35:56.254Z,0.80
2023-01-29T09:38:24.822Z,0.80
2023-01-29T09:41:00.791Z,0.80
2023-01-29T09:43:41.953Z,0.80
2023-01-29T09:46:19.216Z,0.80
2023-01-29T09:48:49.331Z,0.80
2023-01-29T09:51:28.054Z,0.90
2023-01-29T09:54:07.199Z,0.70
2023-01-29T09:56:36.497Z,0.70
2023-01-29T09:59:05.082Z,0.70
2023-01-29T10:01:38.384Z,0.70
2023-01-29T10:04:41.276Z,0.80
2023-01-29T10:07:37.838Z,0.90
2023-01-29T10:10:17.955Z,1.10
2023-01-29T10:13:00.429Z,1.10
2023-01-29T10:16:00.636Z,1.10
2023-01-29T10:18:45.937Z,1.00
2023-01-29T10:21:28.119Z,1.10
2023-01-29T10:24:08.173Z,1.10
2023-01-29T10:26:38.358Z,1.20
2023-01-29T10:29:08.599Z,1.30
2023-01-29T10:31:42.062Z,1.30
2023-01-29T10:34:15.946Z,1.30
2023-01-29T10:36:46.561Z,1.30
2023-01-29T10:39:20.859Z,1.20
2023-01-29T10:42:10.058Z,1.30
2023-01-29T10:44:51.601Z,1.30
2023-01-29T10:47:35.504Z,1.40
2023-01-29T10:50:19.399Z,1.40
2023-01-29T10:53:02.787Z,1.40
2023-01-29T10:55:45.129Z,1.40
2023-01-29T10:58:23.378Z,1.40
2023-01-29T11:00:52.658Z,1.40
2023-01-29T11:03:28.300Z,1.50
2023-01-29T11:06:05.536Z,1.40
2023-01-29T11:08:41.910Z,1.50
2023-01-29T11:11:15.822Z,1.60
2023-01-29T11:13:49.751Z,1.70
2023-01-29T11:16:17.850Z,1.60
2023-01-29T11:18:58.071Z,1.70
2023-01-29T11:21:29.270Z,1.70
2023-01-29T11:24:09.267Z,1.80
2023-01-29T11:26:41.946Z,1.80
2023-01-29T11:29:33.008Z,1.90
2023-01-29T11:32:05.175Z,1.90
2023-01-29T11:34:33.898Z,1.90
2023-01-29T11:37:03.889Z,1.90
2023-01-29T11:39:33.124Z,1.80
2023-01-29T11:42:04.708Z,1.80
2023-01-29T11:44:36.578Z,1.90
2023-01-29T11:47:17.983Z,1.80
2023-01-29T11:49:49.236Z,1.90
2023-01-29T11:52:20.018Z,1.90
2023-01-29T11:54:52.081Z,1.80
2023-01-29T11:57:28.353Z,1.90
2023-01-29T12:00:00.866Z,1.80
2023-01-29T12:02:38.928Z,1.80
2023-01-29T12:05:16.851Z,1.90
2023-01-29T12:07:46.569Z,2.00
2023-01-29T12:10:33.929Z,2.00
2023-01-29T12:13:26.612Z,2.00
2023-01-29T12:16:21.245Z,2.00
2023-01-29T12:18:54.354Z,2.00
2023-01-29T12:21:27.999Z,2.00
2023-01-29T12:24:02.905Z,2.00
2023-01-29T12:26:35.302Z,2.00
2023-01-29T12:29:22.166Z,1.90
2023-01-29T12:31:59.264Z,1.80
2023-01-29T12:34:38.260Z,1.90
2023-01-29T12:37:15.325Z,1.90
2023-01-29T12:39:43.497Z,2.00
2023-01-29T12:42:16.551Z,2.00
2023-01-29T12:44:49.418Z,2.00
2023-01-29T12:47:23.753Z,2.00
2023-01-29T12:49:56.352Z,2.00
2023-01-29T12:52:37.533Z,2.10
2023-01-29T12:55:14.607Z,2.10
2023-01-29T12:57:48.463Z,2.20
2023-01-29T13:00:22.759Z,2.20
2023-01-29T13:02:56.860Z,2.00
2023-01-29T13:05:30.200Z,2.10
2023-01-29T13:08:04.231Z,2.00
2023-01-29T13:10:38.343Z,2.00
2023-01-29T13:13:13.962Z,2.00
2023-01-29T13:15:45.383Z,2.10
2023-01-29T13:18:34.899Z,2.10
2023-01-29T13:21:03.360Z,2.10
2023-01-29T13:23:35.721Z,2.10
2023-01-29T13:26:06.094Z,2.00
2023-01-29T13:28:34.902Z,2.10
2023-01-29T13:31:24.768Z,2.00
2023-01-29T13:34:02.515Z,2.00
2023-01-29T13:36:32.465Z,2.00
2023-01-29T13:39:05.008Z,2.10
2023-01-29T13:41:36.123Z,2.00
2023-01-29T13:44:07.408Z,2.00
2023-01-29T13:46:42.646Z,1.90
2023-01-29T13:49:32.762Z,1.90
2023-01-29T13:52:22.407Z,1.90
2023-01-29T13:54:58.589Z,2.00
2023-01-29T13:57:48.710Z,1.90
2023-01-29T14:00:57.627Z,1.90
2023-01-29T14:04:03.825Z,2.00
2023-01-29T14:06:51.243Z,2.00
2023-01-29T14:09:59.342Z,2.00
2023-01-29T14:12:38.855Z,1.70
2023-01-29T14:15:21.323Z,1.80
2023-01-29T14:18:14.723Z,1.80
2023-01-29T14:20:55.674Z,1.80
2023-01-29T14:23:41.095Z,1.80
2023-01-29T14:26:27.353Z,1.90
2023-01-29T14:29:00.276Z,1.90
2023-01-29T14:31:38.577Z,1.90
2023-01-29T14:34:15.050Z,1.90
2023-01-29T14:36:47.441Z,1.90
2023-01-29T14:39:24.373Z,1.90
2023-01-29T14:41:53.742Z,1.90
2023-01-29T14:44:58.903Z,1.80
2023-01-29T14:48:02.574Z,1.80
2023-01-29T14:50:50.140Z,1.80
2023-01-29T14:53:28.793Z,1.70
2023-01-29T14:56:00.539Z,1.70
2023-01-29T14:58:37.866Z,1.70
2023-01-29T15:01:13.898Z,1.70
2023-01-29T15:03:48.948Z,1.70
2023-01-29T15:06:21.504Z,1.70
2023-01-29T15:08:57.798Z,1.70
2023-01-29T15:11:37.165Z,1.70
2023-01-29T15:14:24.064Z,1.70
2023-01-29T15:17:08.035Z,1.70
2023-01-29T15:19:40.294Z,1.60
2023-01-29T15:22:15.360Z,1.60
2023-01-29T15:24:46.650Z,1.60
2023-01-29T15:27:18.109Z,1.60
2023-01-29T15:30:00.242Z,1.60
2023-01-29T15:32:32.610Z,1.60
2023-01-29T15:35:01.416Z,1.60
2023-01-29T15:37:32.040Z,1.60
2023-01-29T15:40:02.492Z,1.50
2023-01-29T15:42:44.716Z,1.40
2023-01-29T15:45:25.826Z,1.50
2023-01-29T15:47:56.550Z,1.40
2023-01-29T15:50:24.793Z,1.40
2023-01-29T15:52:55.032Z,1.40
2023-01-29T15:55:25.287Z,1.40
2023-01-29T15:57:53.808Z,1.30
2023-01-29T16:00:26.143Z,1.40
2023-01-29T16:02:55.269Z,1.40
2023-01-29T16:05:26.232Z,1.40
2023-01-29T16:07:56.054Z,1.30
2023-01-29T16:10:28.380Z,1.30
2023-01-29T16:12:57.179Z,1.40
2023-01-29T16:15:32.345Z,1.30
2023-01-29T16:18:02.203Z,1.30
2023-01-29T16:20:41.965Z,1.30
2023-01-29T16:23:19.913Z,1.30
2023-01-29T16:25:50.915Z,1.30
2023-01-29T16:28:20.877Z,1.30
2023-01-29T16:30:55.746Z,1.30
2023-01-29T16:33:29.090Z,1.20
2023-01-29T16:35:57.724Z,1.20
2023-01-29T16:38:29.992Z,1.20
2023-01-29T16:41:15.246Z,1.30
2023-01-29T16:43:51.498Z,1.20
2023-01-29T16:46:26.484Z,1.20
2023-01-29T16:48:55.234Z,1.20
2023-01-29T16:51:26.924Z,1.20
2023-01-29T16:53:58.488Z,1.20
2023-01-29T16:56:31.303Z,1.20
2023-01-29T16:59:00.223Z,1.20
2023-01-29T17:01:30.972Z,1.10
2023-01-29T17:04:05.807Z,1.10
2023-01-29T17:06:35.114Z,1.10
2023-01-29T17:09:04.593Z,1.10
2023-01-29T17:11:38.092Z,1.10
2023-01-29T17:14:07.855Z,1.10
2023-01-29T17:16:37.599Z,1.10
2023-01-29T17:19:17.652Z,1.10
2023-01-29T17:21:45.806Z,1.10
2023-01-29T17:24:15.840Z,1.10
2023-01-29T17:26:46.223Z,1.00
2023-01-29T17:29:18.873Z,1.00
2023-01-29T17:31:47.985Z,1.00
2023-01-29T17:34:18.642Z,1.00
2023-01-29T17:36:47.418Z,1.00
2023-01-29T17:39:19.397Z,1.00
2023-01-29T17:41:51.656Z,1.00
2023-01-29T17:44:20.268Z,1.00
2023-01-29T17:46:49.272Z,1.00
2023-01-29T17:49:24.411Z,1.00
2023-01-29T17:51:52.885Z,1.00
2023-01-29T17:54:21.327Z,0.90
2023-01-29T17:56:51.318Z,0.90
2023-01-29T17:59:20.972Z,0.90
2023-01-29T18:01:49.978Z,0.90
2023-01-29T18:04:18.778Z,0.90
2023-01-29T18:06:48.898Z,0.90
2023-01-29T18:09:20.644Z,0.90
2023-01-29T18:11:52.297Z,0.90
2023-01-29T18:14:20.876Z,0.90
2023-01-29T18:16:48.888Z,0.80
2023-01-29T18:19:22.557Z,0.80
2023-01-29T18:21:51.286Z,0.80
2023-01-29T18:24:20.434Z,0.90
2023-01-29T18:26:51.471Z,0.80
2023-01-29T18:29:19.455Z,0.90
2023-01-29T18:31:50.215Z,0.90
2023-01-29T18:34:19.108Z,0.90
2023-01-29T18:36:47.816Z,0.90
2023-01-29T18:39:16.678Z,0.90
2023-01-29T18:41:45.003Z,0.90
2023-01-29T18:44:14.361Z,0.90
2023-01-29T18:46:42.984Z,0.90
2023-01-29T18:49:11.644Z,0.80
2023-01-29T18:51:40.206Z,0.90
2023-01-29T18:54:08.159Z,0.80
2023-01-29T18:56:36.155Z,0.80
2023-01-29T18:59:05.727Z,0.80
2023-01-29T19:01:39.521Z,0.80
2023-01-29T19:04:08.179Z,0.80
2023-01-29T19:06:37.189Z,0.80
2023-01-29T19:09:06.438Z,0.80
2023-01-29T19:11:34.471Z,0.80
2023-01-29T19:14:02.688Z,0.80
2023-01-29T19:16:30.900Z,0.80
2023-01-29T19:19:00.350Z,0.80
2023-01-29T19:21:30.314Z,0.80
2023-01-29T19:23:58.335Z,0.80
2023-01-29T19:26:26.396Z,0.80
2023-01-29T19:28:55.273Z,0.80
2023-01-29T19:31:23.250Z,0.80
2023-01-29T19:33:51.256Z,0.80
2023-01-29T19:36:20.635Z,0.80
2023-01-29T19:38:49.232Z,0.70
2023-01-29T19:41:21.146Z,0.70
2023-01-29T19:43:49.867Z,0.70
2023-01-29T19:46:17.880Z,0.70
2023-01-29T19:48:47.449Z,0.70
2023-01-29T19:51:16.491Z,0.70
2023-01-29T19:53:46.031Z,0.80
2023-01-29T19:56:16.275Z,0.70
2023-01-29T19:58:44.781Z,0.70
2023-01-29T20:01:16.605Z,0.80
2023-01-29T20:03:46.469Z,0.80
2023-01-29T20:06:15.805Z,0.80
2023-01-29T20:08:46.947Z,0.80
2023-01-29T20:11:15.675Z,0.80
2023-01-29T20:13:43.918Z,0.80
2023-01-29T20:16:11.931Z,0.80
2023-01-29T20:18:40.340Z,0.80
2023-01-29T20:21:14.204Z,0.70
2023-01-29T20:23:46.079Z,0.70
2023-01-29T20:26:16.776Z,0.70
2023-01-29T20:28:49.686Z,0.70
2023-01-29T20:31:20.301Z,0.70
2023-01-29T20:33:52.781Z,0.70
2023-01-29T20:36:21.656Z,0.80
2023-01-29T20:38:51.713Z,0.80
2023-01-29T20:41:21.674Z,0.80
2023-01-29T20:43:51.995Z,0.80
2023-01-29T20:46:20.016Z,0.80
2023-01-29T20:48:49.812Z,0.80
2023-01-29T20:51:18.931Z,0.70
2023-01-29T20:53:48.538Z,0.70
2023-01-29T20:56:23.073Z,0.70
2023-01-29T20:59:04.721Z,0.60
2023-01-29T21:01:33.064Z,0.70
2023-01-29T21:04:01.480Z,0.70
2023-01-29T21:06:30.041Z,0.70
2023-01-29T21:08:58.178Z,0.70
2023-01-29T21:11:28.555Z,0.70
2023-01-29T21:13:57.947Z,0.70
2023-01-29T21:16:27.003Z,0.70
2023-01-29T21:18:57.113Z,0.70
2023-01-29T21:21:26.673Z,0.70
2023-01-29T21:23:55.088Z,0.70
2023-01-29T21:26:23.557Z,0.70
2023-01-29T21:28:52.979Z,0.80
2023-01-29T21:31:22.036Z,0.80
2023-01-29T21:33:50.011Z,0.70
2023-01-29T21:36:20.840Z,0.70
2023-01-29T21:38:49.098Z,0.70
2023-01-29T21:41:17.688Z,0.70
2023-01-29T21:43:45.196Z,0.70
2023-01-29T21:46:16.229Z,0.70
2023-01-29T21:48:44.243Z,0.70
2023-01-29T21:51:12.335Z,0.70
2023-01-29T21:53:40.337Z,0.70
2023-01-29T21:56:08.768Z,0.70
2023-01-29T21:58:37.447Z,0.80
2023-01-29T22:01:18.461Z,0.70
2023-01-29T22:03:57.058Z,0.70
2023-01-29T22:06:27.588Z,0.70
2023-01-29T22:08:56.983Z,0.80
2023-01-29T22:11:25.167Z,0.80
2023-01-29T22:13:53.193Z,0.70
2023-01-29T22:16:21.183Z,0.80
2023-01-29T22:18:50.772Z,0.70
2023-01-29T22:21:20.119Z,0.70
2023-01-29T22:23:50.329Z,0.70
2023-01-29T22:26:19.104Z,0.70
2023-01-29T22:28:47.269Z,0.70
2023-01-29T22:31:15.465Z,0.80
2023-01-29T22:33:44.350Z,0.70
2023-01-29T22:36:12.907Z,0.70
2023-01-29T22:39:03.246Z,0.70
2023-01-29T22:41:33.745Z,0.70
2023-01-29T22:44:01.894Z,0.60
2023-01-29T22:46:30.152Z,0.70
2023-01-29T22:48:58.300Z,0.70
2023-01-29T22:51:26.795Z,0.70
2023-01-29T22:53:57.112Z,0.70
2023-01-29T22:56:29.714Z,0.70
2023-01-29T22:58:59.932Z,0.70
2023-01-29T23:01:29.451Z,0.60
2023-01-29T23:03:57.494Z,0.70
2023-01-29T23:06:25.872Z,0.70
2023-01-29T23:08:54.180Z,0.60
2023-01-29T23:11:23.769Z,0.70
2023-01-29T23:13:54.556Z,0.70
2023-01-29T23:16:26.844Z,0.70
2023-01-29T23:18:57.042Z,0.60
2023-01-29T23:21:26.660Z,0.60
2023-01-29T23:24:06.292Z,0.60
2023-01-29T23:26:52.532Z,0.60
2023-01-29T23:29:21.935Z,0.60
2023-01-29T23:31:50.828Z,0.70
2023-01-29T23:34:19.112Z,0.60
2023-01-29T23:36:47.865Z,0.60
2023-01-29T23:39:15.874Z,0.60
2023-01-29T23:41:44.287Z,0.60
2023-01-29T23:44:12.759Z,0.60
2023-01-29T23:46:42.367Z,0.70
2023-01-29T23:49:10.621Z,0.60
2023-01-29T23:51:40.331Z,0.60
2023-01-29T23:54:09.467Z,0.60
2023-01-29T23:56:37.549Z,0.60
2023-01-29T23:59:05.535Z,0.60
